MMLP/LAP METAR and TAF weather

Enter ICAO airport designator
Station Type Date Time Source
MMLP METAR 2019/06/26 04:42 UTC NOAA

MMLP 260442Z 20006KT 10SM SKC 24/14 A2987


Station Type Date Time Source
MMLP Decoded METAR 2019/06/26 04:42 UTC NOAA

La Paz International Airport, Mexico (MMLP) 24-04N 110-22W
Jun 26, 2019 - 12:42 AM EDT / 2019.06.26 0442 UTC
Wind: from the SSW (200 degrees) at 7 MPH (6 KT):0
Visibility: 10 mile(s):0
Sky conditions: clear
Temperature: 75 F (24 C)
Dew Point: 57 F (14 C)
Relative Humidity: 53%
Pressure (altimeter): 29.87 in. Hg (1011 hPa)
ob: MMLP 260442Z 20006KT 10SM SKC 24/14 A2987
cycle: 4

Station Type Date Time Source
MMLP TAF 2019/06/26 06:22 UTC NOAA

TAF MMLP 260415Z 2606/2706 18005KT P6SM SKC
FM261600 36010KT P6SM SKC
FM270300 18005KT P6SM SKC

Example: see airport list